sensor_id;sensor_type;location;lat;lon;timestamp;P1;durP1;ratioP1;P2;durP2;ratioP2
16119;SDS011;12670;53.502;10.252;2022-11-25T00:02:53;18.53;;;11.10;;
16119;SDS011;12670;53.502;10.252;2022-11-25T00:05:56;21.50;;;11.20;;
16119;SDS011;12670;53.502;10.252;2022-11-25T00:09:01;23.30;;;10.60;;
16119;SDS011;12670;53.502;10.252;2022-11-25T00:12:05;21.43;;;11.40;;
16119;SDS011;12670;53.502;10.252;2022-11-25T00:15:08;18.90;;;10.07;;
16119;SDS011;12670;53.502;10.252;2022-11-25T00:18:11;19.63;;;10.77;;
16119;SDS011;12670;53.502;10.252;2022-11-25T00:21:14;18.27;;;11.57;;
16119;SDS011;12670;53.502;10.252;2022-11-25T00:24:20;19.97;;;10.80;;
16119;SDS011;12670;53.502;10.252;2022-11-25T00:27:22;23.83;;;12.20;;
16119;SDS011;12670;53.502;10.252;2022-11-25T00:30:25;21.87;;;10.97;;
16119;SDS011;12670;53.502;10.252;2022-11-25T00:33:28;22.80;;;11.40;;
16119;SDS011;12670;53.502;10.252;2022-11-25T00:36:31;19.07;;;11.20;;
16119;SDS011;12670;53.502;10.252;2022-11-25T00:39:36;21.53;;;11.97;;
16119;SDS011;12670;53.502;10.252;2022-11-25T00:42:39;20.60;;;10.83;;
16119;SDS011;12670;53.502;10.252;2022-11-25T00:45:59;23.83;;;10.87;;
16119;SDS011;12670;53.502;10.252;2022-11-25T00:49:02;21.20;;;11.93;;
16119;SDS011;12670;53.502;10.252;2022-11-25T00:52:04;19.83;;;11.60;;
16119;SDS011;12670;53.502;10.252;2022-11-25T00:55:09;25.77;;;12.13;;
16119;SDS011;12670;53.502;10.252;2022-11-25T00:58:12;22.30;;;12.07;;
16119;SDS011;12670;53.502;10.252;2022-11-25T01:01:14;27.10;;;12.30;;
16119;SDS011;12670;53.502;10.252;2022-11-25T01:04:17;21.00;;;11.70;;
16119;SDS011;12670;53.502;10.252;2022-11-25T01:07:19;20.70;;;11.90;;
16119;SDS011;12670;53.502;10.252;2022-11-25T01:10:24;24.30;;;12.53;;
16119;SDS011;12670;53.502;10.252;2022-11-25T01:13:26;25.00;;;12.27;;
16119;SDS011;12670;53.502;10.252;2022-11-25T01:16:29;22.60;;;11.33;;
16119;SDS011;12670;53.502;10.252;2022-11-25T01:19:32;22.63;;;12.37;;
16119;SDS011;12670;53.502;10.252;2022-11-25T01:22:38;19.53;;;11.23;;
16119;SDS011;12670;53.502;10.252;2022-11-25T01:25:42;21.50;;;11.67;;
16119;SDS011;12670;53.502;10.252;2022-11-25T01:28:45;22.63;;;12.17;;
16119;SDS011;12670;53.502;10.252;2022-11-25T01:31:48;23.80;;;12.63;;
16119;SDS011;12670;53.502;10.252;2022-11-25T01:34:51;22.03;;;11.80;;
16119;SDS011;12670;53.502;10.252;2022-11-25T01:37:54;27.57;;;13.70;;
16119;SDS011;12670;53.502;10.252;2022-11-25T01:40:58;23.67;;;11.43;;
16119;SDS011;12670;53.502;10.252;2022-11-25T01:44:02;24.27;;;11.83;;
16119;SDS011;12670;53.502;10.252;2022-11-25T01:47:08;20.70;;;12.40;;
16119;SDS011;12670;53.502;10.252;2022-11-25T01:50:16;22.90;;;12.37;;
16119;SDS011;12670;53.502;10.252;2022-11-25T01:53:22;28.20;;;14.13;;
16119;SDS011;12670;53.502;10.252;2022-11-25T01:56:27;27.87;;;12.93;;
16119;SDS011;12670;53.502;10.252;2022-11-25T01:59:33;23.33;;;13.40;;
16119;SDS011;12670;53.502;10.252;2022-11-25T02:02:40;24.63;;;13.17;;
16119;SDS011;12670;53.502;10.252;2022-11-25T02:05:45;25.97;;;13.00;;
16119;SDS011;12670;53.502;10.252;2022-11-25T02:08:53;23.40;;;13.33;;
16119;SDS011;12670;53.502;10.252;2022-11-25T02:12:00;24.87;;;13.57;;
16119;SDS011;12670;53.502;10.252;2022-11-25T02:15:05;28.20;;;13.50;;
16119;SDS011;12670;53.502;10.252;2022-11-25T02:18:08;28.70;;;13.80;;
16119;SDS011;12670;53.502;10.252;2022-11-25T02:21:12;23.40;;;13.00;;
16119;SDS011;12670;53.502;10.252;2022-11-25T02:24:17;23.87;;;12.77;;
16119;SDS011;12670;53.502;10.252;2022-11-25T02:27:27;23.33;;;13.57;;
16119;SDS011;12670;53.502;10.252;2022-11-25T02:30:30;26.40;;;13.23;;
16119;SDS011;12670;53.502;10.252;2022-11-25T02:33:32;28.53;;;13.10;;
16119;SDS011;12670;53.502;10.252;2022-11-25T02:36:35;21.17;;;12.17;;
16119;SDS011;12670;53.502;10.252;2022-11-25T02:39:38;22.67;;;12.20;;
16119;SDS011;12670;53.502;10.252;2022-11-25T02:42:42;24.67;;;12.87;;
16119;SDS011;12670;53.502;10.252;2022-11-25T02:45:50;21.37;;;11.57;;
16119;SDS011;12670;53.502;10.252;2022-11-25T02:48:57;24.73;;;12.47;;
16119;SDS011;12670;53.502;10.252;2022-11-25T02:52:09;21.30;;;12.30;;
16119;SDS011;12670;53.502;10.252;2022-11-25T02:55:12;24.47;;;12.37;;
16119;SDS011;12670;53.502;10.252;2022-11-25T02:58:16;20.60;;;12.23;;
16119;SDS011;12670;53.502;10.252;2022-11-25T03:01:19;26.67;;;12.63;;
16119;SDS011;12670;53.502;10.252;2022-11-25T03:04:22;30.10;;;12.47;;
16119;SDS011;12670;53.502;10.252;2022-11-25T03:07:25;24.63;;;12.63;;
16119;SDS011;12670;53.502;10.252;2022-11-25T03:10:28;29.07;;;13.17;;
16119;SDS011;12670;53.502;10.252;2022-11-25T03:13:32;24.87;;;11.80;;
16119;SDS011;12670;53.502;10.252;2022-11-25T03:16:35;20.20;;;11.80;;
16119;SDS011;12670;53.502;10.252;2022-11-25T03:19:38;23.97;;;13.57;;
16119;SDS011;12670;53.502;10.252;2022-11-25T03:22:41;23.20;;;12.93;;
16119;SDS011;12670;53.502;10.252;2022-11-25T03:25:44;24.13;;;13.00;;
16119;SDS011;12670;53.502;10.252;2022-11-25T03:28:48;25.47;;;13.53;;
16119;SDS011;12670;53.502;10.252;2022-11-25T03:31:50;27.30;;;13.30;;
16119;SDS011;12670;53.502;10.252;2022-11-25T03:34:53;23.17;;;13.20;;
16119;SDS011;12670;53.502;10.252;2022-11-25T03:37:56;24.50;;;13.60;;
16119;SDS011;12670;53.502;10.252;2022-11-25T03:40:58;23.23;;;13.50;;
16119;SDS011;12670;53.502;10.252;2022-11-25T03:44:02;22.23;;;12.90;;
16119;SDS011;12670;53.502;10.252;2022-11-25T03:47:05;24.20;;;13.03;;
16119;SDS011;12670;53.502;10.252;2022-11-25T03:50:09;19.90;;;11.93;;
16119;SDS011;12670;53.502;10.252;2022-11-25T03:53:13;19.67;;;11.60;;
16119;SDS011;12670;53.502;10.252;2022-11-25T03:56:16;23.97;;;12.30;;
16119;SDS011;12670;53.502;10.252;2022-11-25T03:59:20;25.67;;;12.43;;
16119;SDS011;12670;53.502;10.252;2022-11-25T04:02:23;22.30;;;12.20;;
16119;SDS011;12670;53.502;10.252;2022-11-25T04:05:25;23.60;;;12.00;;
16119;SDS011;12670;53.502;10.252;2022-11-25T04:08:28;20.83;;;11.40;;
16119;SDS011;12670;53.502;10.252;2022-11-25T04:11:31;20.50;;;11.60;;
16119;SDS011;12670;53.502;10.252;2022-11-25T04:14:49;25.23;;;11.47;;
16119;SDS011;12670;53.502;10.252;2022-11-25T04:17:51;20.13;;;11.13;;
16119;SDS011;12670;53.502;10.252;2022-11-25T04:20:54;20.40;;;10.67;;
16119;SDS011;12670;53.502;10.252;2022-11-25T04:23:57;21.50;;;11.00;;
16119;SDS011;12670;53.502;10.252;2022-11-25T04:26:59;22.97;;;10.70;;
16119;SDS011;12670;53.502;10.252;2022-11-25T04:30:04;19.40;;;10.47;;
16119;SDS011;12670;53.502;10.252;2022-11-25T04:33:07;20.67;;;10.70;;
16119;SDS011;12670;53.502;10.252;2022-11-25T04:36:10;22.40;;;11.00;;
16119;SDS011;12670;53.502;10.252;2022-11-25T04:39:13;24.17;;;10.83;;
16119;SDS011;12670;53.502;10.252;2022-11-25T04:42:15;19.23;;;10.80;;
16119;SDS011;12670;53.502;10.252;2022-11-25T04:45:34;17.83;;;11.53;;
16119;SDS011;12670;53.502;10.252;2022-11-25T04:48:57;23.47;;;10.87;;
16119;SDS011;12670;53.502;10.252;2022-11-25T04:51:59;21.13;;;10.90;;
16119;SDS011;12670;53.502;10.252;2022-11-25T04:55:02;19.47;;;10.60;;
16119;SDS011;12670;53.502;10.252;2022-11-25T04:58:07;20.83;;;10.90;;
16119;SDS011;12670;53.502;10.252;2022-11-25T05:01:12;20.03;;;10.27;;
16119;SDS011;12670;53.502;10.252;2022-11-25T05:04:14;21.60;;;10.17;;
16119;SDS011;12670;53.502;10.252;2022-11-25T05:07:17;20.63;;;10.70;;
16119;SDS011;12670;53.502;10.252;2022-11-25T05:10:22;21.97;;;10.87;;
16119;SDS011;12670;53.502;10.252;2022-11-25T05:13:24;21.00;;;10.97;;
16119;SDS011;12670;53.502;10.252;2022-11-25T05:16:29;20.70;;;10.57;;
16119;SDS011;12670;53.502;10.252;2022-11-25T05:19:32;20.87;;;10.43;;
16119;SDS011;12670;53.502;10.252;2022-11-25T05:22:36;19.47;;;10.80;;
16119;SDS011;12670;53.502;10.252;2022-11-25T05:25:39;21.13;;;9.90;;
16119;SDS011;12670;53.502;10.252;2022-11-25T05:28:41;24.53;;;11.07;;
16119;SDS011;12670;53.502;10.252;2022-11-25T05:31:45;25.07;;;9.73;;
16119;SDS011;12670;53.502;10.252;2022-11-25T05:34:48;18.57;;;9.87;;
16119;SDS011;12670;53.502;10.252;2022-11-25T05:37:51;22.80;;;10.63;;
16119;SDS011;12670;53.502;10.252;2022-11-25T05:40:58;19.75;;;10.05;;
16119;SDS011;12670;53.502;10.252;2022-11-25T05:44:02;18.70;;;8.63;;
16119;SDS011;12670;53.502;10.252;2022-11-25T05:47:07;18.33;;;8.83;;
16119;SDS011;12670;53.502;10.252;2022-11-25T05:50:10;14.27;;;8.37;;
16119;SDS011;12670;53.502;10.252;2022-11-25T05:53:12;19.20;;;8.33;;
16119;SDS011;12670;53.502;10.252;2022-11-25T05:56:17;17.40;;;8.00;;
16119;SDS011;12670;53.502;10.252;2022-11-25T05:59:20;18.17;;;7.43;;
16119;SDS011;12670;53.502;10.252;2022-11-25T06:02:24;18.07;;;8.03;;
16119;SDS011;12670;53.502;10.252;2022-11-25T06:05:26;17.27;;;7.33;;
16119;SDS011;12670;53.502;10.252;2022-11-25T06:08:29;14.50;;;7.60;;
16119;SDS011;12670;53.502;10.252;2022-11-25T06:11:32;19.07;;;7.20;;
16119;SDS011;12670;53.502;10.252;2022-11-25T06:14:34;17.13;;;7.40;;
16119;SDS011;12670;53.502;10.252;2022-11-25T06:17:39;17.20;;;7.07;;
16119;SDS011;12670;53.502;10.252;2022-11-25T06:20:42;18.70;;;6.80;;
16119;SDS011;12670;53.502;10.252;2022-11-25T06:23:46;18.57;;;6.30;;
16119;SDS011;12670;53.502;10.252;2022-11-25T06:26:48;17.60;;;6.07;;
16119;SDS011;12670;53.502;10.252;2022-11-25T06:29:51;15.57;;;6.97;;
16119;SDS011;12670;53.502;10.252;2022-11-25T06:32:55;17.83;;;6.73;;
16119;SDS011;12670;53.502;10.252;2022-11-25T06:35:58;17.73;;;5.97;;
16119;SDS011;12670;53.502;10.252;2022-11-25T06:39:00;13.10;;;5.90;;
16119;SDS011;12670;53.502;10.252;2022-11-25T06:42:03;13.60;;;5.40;;
16119;SDS011;12670;53.502;10.252;2022-11-25T06:45:06;12.87;;;5.60;;
16119;SDS011;12670;53.502;10.252;2022-11-25T06:48:11;12.03;;;5.60;;
16119;SDS011;12670;53.502;10.252;2022-11-25T06:51:14;13.17;;;5.20;;
16119;SDS011;12670;53.502;10.252;2022-11-25T06:54:17;12.17;;;4.93;;
16119;SDS011;12670;53.502;10.252;2022-11-25T06:57:20;11.73;;;4.90;;
16119;SDS011;12670;53.502;10.252;2022-11-25T07:00:22;15.13;;;5.30;;
16119;SDS011;12670;53.502;10.252;2022-11-25T07:03:26;12.13;;;5.07;;
16119;SDS011;12670;53.502;10.252;2022-11-25T07:06:30;14.80;;;5.63;;
16119;SDS011;12670;53.502;10.252;2022-11-25T07:09:33;15.73;;;5.13;;
16119;SDS011;12670;53.502;10.252;2022-11-25T07:12:36;11.93;;;5.17;;
16119;SDS011;12670;53.502;10.252;2022-11-25T07:15:38;13.47;;;5.77;;
16119;SDS011;12670;53.502;10.252;2022-11-25T07:18:43;15.23;;;5.83;;
16119;SDS011;12670;53.502;10.252;2022-11-25T07:21:45;16.00;;;5.67;;
16119;SDS011;12670;53.502;10.252;2022-11-25T07:24:48;11.20;;;5.50;;
16119;SDS011;12670;53.502;10.252;2022-11-25T07:27:51;14.40;;;5.13;;
16119;SDS011;12670;53.502;10.252;2022-11-25T07:30:53;12.77;;;5.63;;
16119;SDS011;12670;53.502;10.252;2022-11-25T07:34:18;11.10;;;5.33;;
16119;SDS011;12670;53.502;10.252;2022-11-25T07:37:21;13.63;;;5.60;;
16119;SDS011;12670;53.502;10.252;2022-11-25T07:40:24;13.63;;;5.63;;
16119;SDS011;12670;53.502;10.252;2022-11-25T07:43:27;11.57;;;5.60;;
16119;SDS011;12670;53.502;10.252;2022-11-25T07:46:30;14.93;;;6.03;;
16119;SDS011;12670;53.502;10.252;2022-11-25T07:49:37;14.77;;;5.97;;
16119;SDS011;12670;53.502;10.252;2022-11-25T07:52:40;16.90;;;5.33;;
16119;SDS011;12670;53.502;10.252;2022-11-25T07:55:43;13.37;;;5.60;;
16119;SDS011;12670;53.502;10.252;2022-11-25T07:58:46;12.57;;;5.80;;
16119;SDS011;12670;53.502;10.252;2022-11-25T08:01:50;11.90;;;5.27;;
16119;SDS011;12670;53.502;10.252;2022-11-25T08:04:55;15.30;;;5.43;;
16119;SDS011;12670;53.502;10.252;2022-11-25T08:07:57;10.57;;;6.13;;
16119;SDS011;12670;53.502;10.252;2022-11-25T08:11:00;18.80;;;6.03;;
16119;SDS011;12670;53.502;10.252;2022-11-25T08:14:06;12.33;;;5.70;;
16119;SDS011;12670;53.502;10.252;2022-11-25T08:17:10;16.53;;;5.67;;
16119;SDS011;12670;53.502;10.252;2022-11-25T08:20:14;11.40;;;5.10;;
16119;SDS011;12670;53.502;10.252;2022-11-25T08:23:17;23.20;;;6.60;;
16119;SDS011;12670;53.502;10.252;2022-11-25T08:26:21;16.23;;;5.83;;
16119;SDS011;12670;53.502;10.252;2022-11-25T08:29:25;16.07;;;5.57;;
16119;SDS011;12670;53.502;10.252;2022-11-25T08:32:28;14.90;;;5.00;;
16119;SDS011;12670;53.502;10.252;2022-11-25T08:35:32;16.20;;;5.60;;
16119;SDS011;12670;53.502;10.252;2022-11-25T08:38:38;15.23;;;5.17;;
16119;SDS011;12670;53.502;10.252;2022-11-25T08:41:42;15.53;;;5.63;;
16119;SDS011;12670;53.502;10.252;2022-11-25T08:44:44;14.97;;;5.83;;
16119;SDS011;12670;53.502;10.252;2022-11-25T08:47:47;18.57;;;5.60;;
16119;SDS011;12670;53.502;10.252;2022-11-25T08:50:52;11.50;;;5.13;;
16119;SDS011;12670;53.502;10.252;2022-11-25T08:53:55;14.27;;;5.53;;
16119;SDS011;12670;53.502;10.252;2022-11-25T08:56:58;17.07;;;5.33;;
16119;SDS011;12670;53.502;10.252;2022-11-25T09:00:02;11.20;;;4.90;;
16119;SDS011;12670;53.502;10.252;2022-11-25T09:03:05;12.30;;;5.53;;
16119;SDS011;12670;53.502;10.252;2022-11-25T09:06:10;14.80;;;5.20;;
16119;SDS011;12670;53.502;10.252;2022-11-25T09:09:13;17.20;;;4.80;;
16119;SDS011;12670;53.502;10.252;2022-11-25T09:12:16;18.77;;;5.30;;
16119;SDS011;12670;53.502;10.252;2022-11-25T09:15:19;18.97;;;4.80;;
16119;SDS011;12670;53.502;10.252;2022-11-25T09:18:22;13.27;;;4.83;;
16119;SDS011;12670;53.502;10.252;2022-11-25T09:21:27;13.90;;;5.07;;
16119;SDS011;12670;53.502;10.252;2022-11-25T09:24:30;15.17;;;4.63;;
16119;SDS011;12670;53.502;10.252;2022-11-25T09:27:32;19.67;;;5.37;;
16119;SDS011;12670;53.502;10.252;2022-11-25T09:30:35;10.23;;;4.10;;
16119;SDS011;12670;53.502;10.252;2022-11-25T09:33:38;16.67;;;5.10;;
16119;SDS011;12670;53.502;10.252;2022-11-25T09:36:43;16.47;;;4.70;;
16119;SDS011;12670;53.502;10.252;2022-11-25T09:39:46;19.53;;;5.43;;
16119;SDS011;12670;53.502;10.252;2022-11-25T09:42:53;15.73;;;5.33;;
16119;SDS011;12670;53.502;10.252;2022-11-25T09:46:20;13.57;;;5.10;;
16119;SDS011;12670;53.502;10.252;2022-11-25T09:49:54;13.70;;;4.97;;
16119;SDS011;12670;53.502;10.252;2022-11-25T09:53:07;13.67;;;4.30;;
16119;SDS011;12670;53.502;10.252;2022-11-25T09:56:21;18.90;;;5.20;;
16119;SDS011;12670;53.502;10.252;2022-11-25T09:59:30;13.40;;;4.90;;
16119;SDS011;12670;53.502;10.252;2022-11-25T10:02:41;11.40;;;4.23;;
16119;SDS011;12670;53.502;10.252;2022-11-25T10:05:52;12.90;;;4.77;;
16119;SDS011;12670;53.502;10.252;2022-11-25T10:09:10;11.13;;;5.07;;
16119;SDS011;12670;53.502;10.252;2022-11-25T10:12:17;19.53;;;5.27;;
16119;SDS011;12670;53.502;10.252;2022-11-25T10:15:26;12.03;;;4.97;;
16119;SDS011;12670;53.502;10.252;2022-11-25T10:18:37;15.20;;;5.77;;
16119;SDS011;12670;53.502;10.252;2022-11-25T10:21:43;12.57;;;5.03;;
16119;SDS011;12670;53.502;10.252;2022-11-25T10:24:48;15.60;;;5.90;;
16119;SDS011;12670;53.502;10.252;2022-11-25T10:27:55;12.47;;;5.27;;
16119;SDS011;12670;53.502;10.252;2022-11-25T10:31:02;15.83;;;6.03;;
16119;SDS011;12670;53.502;10.252;2022-11-25T10:34:10;15.63;;;4.60;;
16119;SDS011;12670;53.502;10.252;2022-11-25T10:37:18;14.20;;;5.57;;
16119;SDS011;12670;53.502;10.252;2022-11-25T10:40:29;16.83;;;5.83;;
16119;SDS011;12670;53.502;10.252;2022-11-25T10:43:32;17.03;;;5.57;;
16119;SDS011;12670;53.502;10.252;2022-11-25T10:46:36;17.00;;;6.83;;
16119;SDS011;12670;53.502;10.252;2022-11-25T10:50:11;16.63;;;5.70;;
16119;SDS011;12670;53.502;10.252;2022-11-25T10:53:19;18.40;;;5.50;;
16119;SDS011;12670;53.502;10.252;2022-11-25T10:56:26;15.93;;;5.83;;
16119;SDS011;12670;53.502;10.252;2022-11-25T10:59:30;11.27;;;5.20;;
16119;SDS011;12670;53.502;10.252;2022-11-25T11:02:37;11.07;;;5.13;;
16119;SDS011;12670;53.502;10.252;2022-11-25T11:05:44;18.30;;;6.77;;
16119;SDS011;12670;53.502;10.252;2022-11-25T11:08:48;17.53;;;5.70;;
16119;SDS011;12670;53.502;10.252;2022-11-25T11:11:52;15.03;;;5.67;;
16119;SDS011;12670;53.502;10.252;2022-11-25T11:15:13;13.63;;;5.60;;
16119;SDS011;12670;53.502;10.252;2022-11-25T11:18:22;16.53;;;5.97;;
16119;SDS011;12670;53.502;10.252;2022-11-25T11:21:30;15.87;;;6.43;;
16119;SDS011;12670;53.502;10.252;2022-11-25T11:24:34;13.37;;;5.60;;
16119;SDS011;12670;53.502;10.252;2022-11-25T11:27:39;18.53;;;6.30;;
16119;SDS011;12670;53.502;10.252;2022-11-25T11:30:51;14.70;;;5.67;;
16119;SDS011;12670;53.502;10.252;2022-11-25T11:33:57;16.03;;;5.50;;
16119;SDS011;12670;53.502;10.252;2022-11-25T11:37:12;16.77;;;6.27;;
16119;SDS011;12670;53.502;10.252;2022-11-25T11:40:24;17.67;;;5.90;;
16119;SDS011;12670;53.502;10.252;2022-11-25T11:43:38;10.87;;;6.00;;
16119;SDS011;12670;53.502;10.252;2022-11-25T11:47:00;17.97;;;6.17;;
16119;SDS011;12670;53.502;10.252;2022-11-25T11:50:20;16.33;;;6.10;;
16119;SDS011;12670;53.502;10.252;2022-11-25T11:53:29;13.63;;;5.77;;
16119;SDS011;12670;53.502;10.252;2022-11-25T11:56:37;14.87;;;5.83;;
16119;SDS011;12670;53.502;10.252;2022-11-25T11:59:48;18.43;;;6.70;;
16119;SDS011;12670;53.502;10.252;2022-11-25T12:02:54;17.47;;;5.77;;
16119;SDS011;12670;53.502;10.252;2022-11-25T12:06:05;14.17;;;5.90;;
16119;SDS011;12670;53.502;10.252;2022-11-25T12:09:12;16.00;;;5.97;;
16119;SDS011;12670;53.502;10.252;2022-11-25T12:12:21;13.10;;;5.50;;
16119;SDS011;12670;53.502;10.252;2022-11-25T12:15:38;16.43;;;5.97;;
16119;SDS011;12670;53.502;10.252;2022-11-25T12:18:48;13.70;;;5.73;;
16119;SDS011;12670;53.502;10.252;2022-11-25T12:21:55;15.77;;;5.93;;
16119;SDS011;12670;53.502;10.252;2022-11-25T12:25:06;14.73;;;5.37;;
16119;SDS011;12670;53.502;10.252;2022-11-25T12:28:16;16.20;;;5.40;;
16119;SDS011;12670;53.502;10.252;2022-11-25T12:31:24;10.00;;;4.93;;
16119;SDS011;12670;53.502;10.252;2022-11-25T12:34:32;14.07;;;5.23;;
16119;SDS011;12670;53.502;10.252;2022-11-25T12:37:42;15.23;;;5.33;;
16119;SDS011;12670;53.502;10.252;2022-11-25T12:40:48;16.03;;;5.70;;
16119;SDS011;12670;53.502;10.252;2022-11-25T12:43:59;16.83;;;5.73;;
16119;SDS011;12670;53.502;10.252;2022-11-25T12:47:09;15.87;;;5.70;;
16119;SDS011;12670;53.502;10.252;2022-11-25T12:50:13;14.77;;;5.60;;
16119;SDS011;12670;53.502;10.252;2022-11-25T12:53:19;20.33;;;6.67;;
16119;SDS011;12670;53.502;10.252;2022-11-25T12:56:33;19.90;;;6.07;;
16119;SDS011;12670;53.502;10.252;2022-11-25T12:59:51;19.43;;;7.83;;
16119;SDS011;12670;53.502;10.252;2022-11-25T13:03:30;20.87;;;6.30;;
16119;SDS011;12670;53.502;10.252;2022-11-25T13:06:58;16.20;;;6.10;;
16119;SDS011;12670;53.502;10.252;2022-11-25T13:13:46;17.63;;;6.43;;
16119;SDS011;12670;53.502;10.252;2022-11-25T13:16:53;25.30;;;7.70;;
16119;SDS011;12670;53.502;10.252;2022-11-25T13:26:58;17.03;;;6.73;;
16119;SDS011;12670;53.502;10.252;2022-11-25T13:30:02;23.03;;;6.77;;
16119;SDS011;12670;53.502;10.252;2022-11-25T13:36:47;26.50;;;7.23;;
16119;SDS011;12670;53.502;10.252;2022-11-25T13:39:50;18.67;;;6.40;;
16119;SDS011;12670;53.502;10.252;2022-11-25T13:43:32;24.00;;;6.30;;
16119;SDS011;12670;53.502;10.252;2022-11-25T13:46:37;20.07;;;6.77;;
16119;SDS011;12670;53.502;10.252;2022-11-25T13:49:43;14.77;;;6.20;;
16119;SDS011;12670;53.502;10.252;2022-11-25T13:52:57;14.37;;;5.83;;
16119;SDS011;12670;53.502;10.252;2022-11-25T13:56:11;15.93;;;5.70;;
16119;SDS011;12670;53.502;10.252;2022-11-25T13:59:28;13.80;;;6.30;;
16119;SDS011;12670;53.502;10.252;2022-11-25T14:02:41;16.50;;;6.50;;
16119;SDS011;12670;53.502;10.252;2022-11-25T14:05:56;18.60;;;5.93;;
16119;SDS011;12670;53.502;10.252;2022-11-25T14:09:11;21.80;;;6.70;;
16119;SDS011;12670;53.502;10.252;2022-11-25T14:12:37;15.40;;;6.03;;
16119;SDS011;12670;53.502;10.252;2022-11-25T14:15:54;19.47;;;5.90;;
16119;SDS011;12670;53.502;10.252;2022-11-25T14:19:15;16.87;;;6.10;;
16119;SDS011;12670;53.502;10.252;2022-11-25T14:26:37;20.87;;;6.37;;
16119;SDS011;12670;53.502;10.252;2022-11-25T14:29:58;10.83;;;5.90;;
16119;SDS011;12670;53.502;10.252;2022-11-25T14:33:02;15.30;;;7.00;;
16119;SDS011;12670;53.502;10.252;2022-11-25T14:36:10;14.50;;;6.57;;
16119;SDS011;12670;53.502;10.252;2022-11-25T14:39:17;17.50;;;6.67;;
16119;SDS011;12670;53.502;10.252;2022-11-25T14:42:30;22.23;;;7.23;;
16119;SDS011;12670;53.502;10.252;2022-11-25T14:45:36;22.17;;;6.97;;
16119;SDS011;12670;53.502;10.252;2022-11-25T14:48:39;14.73;;;6.60;;
16119;SDS011;12670;53.502;10.252;2022-11-25T14:51:42;16.97;;;7.07;;
16119;SDS011;12670;53.502;10.252;2022-11-25T14:54:49;16.07;;;5.80;;
16119;SDS011;12670;53.502;10.252;2022-11-25T14:57:54;15.20;;;6.50;;
16119;SDS011;12670;53.502;10.252;2022-11-25T15:00:59;16.57;;;6.20;;
16119;SDS011;12670;53.502;10.252;2022-11-25T15:04:03;20.42;;;7.05;;
16119;SDS011;12670;53.502;10.252;2022-11-25T15:07:13;14.30;;;6.50;;
16119;SDS011;12670;53.502;10.252;2022-11-25T15:10:37;20.57;;;7.43;;
16119;SDS011;12670;53.502;10.252;2022-11-25T15:13:44;18.50;;;7.13;;
16119;SDS011;12670;53.502;10.252;2022-11-25T15:16:48;17.80;;;6.83;;
16119;SDS011;12670;53.502;10.252;2022-11-25T15:19:52;23.30;;;8.63;;
16119;SDS011;12670;53.502;10.252;2022-11-25T15:22:57;19.43;;;7.57;;
16119;SDS011;12670;53.502;10.252;2022-11-25T15:26:00;19.43;;;7.40;;
16119;SDS011;12670;53.502;10.252;2022-11-25T15:29:09;16.83;;;6.97;;
16119;SDS011;12670;53.502;10.252;2022-11-25T15:32:14;18.30;;;7.37;;
16119;SDS011;12670;53.502;10.252;2022-11-25T15:35:19;15.17;;;7.40;;
16119;SDS011;12670;53.502;10.252;2022-11-25T15:38:34;16.53;;;8.40;;
16119;SDS011;12670;53.502;10.252;2022-11-25T15:41:39;17.00;;;8.43;;
16119;SDS011;12670;53.502;10.252;2022-11-25T15:44:45;16.73;;;7.77;;
16119;SDS011;12670;53.502;10.252;2022-11-25T15:47:52;20.50;;;8.80;;
16119;SDS011;12670;53.502;10.252;2022-11-25T15:50:56;13.40;;;7.67;;
16119;SDS011;12670;53.502;10.252;2022-11-25T15:54:04;21.73;;;8.60;;
16119;SDS011;12670;53.502;10.252;2022-11-25T15:57:15;22.20;;;8.90;;
16119;SDS011;12670;53.502;10.252;2022-11-25T16:00:22;21.13;;;8.13;;
16119;SDS011;12670;53.502;10.252;2022-11-25T16:03:25;18.87;;;8.63;;
16119;SDS011;12670;53.502;10.252;2022-11-25T16:06:28;18.37;;;9.73;;
16119;SDS011;12670;53.502;10.252;2022-11-25T16:09:31;19.63;;;9.77;;
16119;SDS011;12670;53.502;10.252;2022-11-25T16:12:34;18.87;;;9.53;;
16119;SDS011;12670;53.502;10.252;2022-11-25T16:15:42;21.37;;;9.13;;
16119;SDS011;12670;53.502;10.252;2022-11-25T16:22:13;21.43;;;8.57;;
16119;SDS011;12670;53.502;10.252;2022-11-25T16:25:18;19.87;;;8.00;;
16119;SDS011;12670;53.502;10.252;2022-11-25T16:28:21;22.53;;;8.70;;
16119;SDS011;12670;53.502;10.252;2022-11-25T16:31:26;17.97;;;8.40;;
16119;SDS011;12670;53.502;10.252;2022-11-25T16:34:28;21.20;;;9.23;;
16119;SDS011;12670;53.502;10.252;2022-11-25T16:37:31;24.47;;;9.57;;
16119;SDS011;12670;53.502;10.252;2022-11-25T16:40:34;19.53;;;9.67;;
16119;SDS011;12670;53.502;10.252;2022-11-25T16:43:38;19.83;;;9.30;;
16119;SDS011;12670;53.502;10.252;2022-11-25T16:46:42;21.07;;;9.37;;
16119;SDS011;12670;53.502;10.252;2022-11-25T16:49:44;17.13;;;9.07;;
16119;SDS011;12670;53.502;10.252;2022-11-25T16:52:47;21.30;;;8.70;;
16119;SDS011;12670;53.502;10.252;2022-11-25T16:55:50;24.27;;;10.77;;
16119;SDS011;12670;53.502;10.252;2022-11-25T16:58:53;20.27;;;9.20;;
16119;SDS011;12670;53.502;10.252;2022-11-25T17:01:58;25.03;;;9.77;;
16119;SDS011;12670;53.502;10.252;2022-11-25T17:05:06;20.57;;;9.93;;
16119;SDS011;12670;53.502;10.252;2022-11-25T17:08:18;22.47;;;10.47;;
16119;SDS011;12670;53.502;10.252;2022-11-25T17:11:22;20.47;;;10.63;;
16119;SDS011;12670;53.502;10.252;2022-11-25T17:14:29;31.50;;;11.80;;
16119;SDS011;12670;53.502;10.252;2022-11-25T17:17:36;23.23;;;11.77;;
16119;SDS011;12670;53.502;10.252;2022-11-25T17:20:38;24.20;;;11.17;;
16119;SDS011;12670;53.502;10.252;2022-11-25T17:23:41;32.57;;;12.43;;
16119;SDS011;12670;53.502;10.252;2022-11-25T17:26:45;25.23;;;12.23;;
16119;SDS011;12670;53.502;10.252;2022-11-25T17:29:49;25.03;;;11.57;;
16119;SDS011;12670;53.502;10.252;2022-11-25T17:32:55;22.53;;;10.33;;
16119;SDS011;12670;53.502;10.252;2022-11-25T17:36:02;21.53;;;10.47;;
16119;SDS011;12670;53.502;10.252;2022-11-25T17:39:05;17.63;;;9.97;;
16119;SDS011;12670;53.502;10.252;2022-11-25T17:42:09;18.17;;;10.40;;
16119;SDS011;12670;53.502;10.252;2022-11-25T17:45:15;24.43;;;9.87;;
16119;SDS011;12670;53.502;10.252;2022-11-25T17:48:21;21.43;;;10.37;;
16119;SDS011;12670;53.502;10.252;2022-11-25T17:51:23;17.77;;;10.03;;
16119;SDS011;12670;53.502;10.252;2022-11-25T17:54:26;24.10;;;10.77;;
16119;SDS011;12670;53.502;10.252;2022-11-25T17:57:29;20.37;;;10.93;;
16119;SDS011;12670;53.502;10.252;2022-11-25T18:00:32;22.07;;;11.77;;
16119;SDS011;12670;53.502;10.252;2022-11-25T18:03:36;17.80;;;10.57;;
16119;SDS011;12670;53.502;10.252;2022-11-25T18:06:39;26.23;;;11.83;;
16119;SDS011;12670;53.502;10.252;2022-11-25T18:09:42;23.03;;;12.27;;
16119;SDS011;12670;53.502;10.252;2022-11-25T18:12:45;22.70;;;11.90;;
16119;SDS011;12670;53.502;10.252;2022-11-25T18:15:50;23.97;;;12.47;;
16119;SDS011;12670;53.502;10.252;2022-11-25T18:18:55;24.33;;;11.57;;
16119;SDS011;12670;53.502;10.252;2022-11-25T18:21:58;25.37;;;13.57;;
16119;SDS011;12670;53.502;10.252;2022-11-25T18:25:02;22.60;;;11.87;;